Time;durP1;ratioP1;P1;durP2;ratioP2;P2;SDS_P1;SDS_P2;PMS_P1;PMS_P2;Temp;Humidity;BMP_temperature;BMP_pressure;BME280_temperature;BME280_humidity;BME280_pressure;Samples;Min_cycle;Max_cycle;Signal;HPM_P1;HPM_P2
2021/06/06 00:00:52;;;;;;;33.73;24.50;;;18.40;99.90;;;;;;5066189;28;20497;-70
2021/06/06 00:03:41;;;;;;;33.80;24.40;;;18.30;99.90;;;;;;5069635;28;20450;-70
2021/06/06 00:06:29;;;;;;;35.20;25.60;;;18.30;99.90;;;;;;5068561;28;20441;-71
2021/06/06 00:09:17;;;;;;;39.07;28.60;;;18.30;99.90;;;;;;5071229;28;20470;-71
2021/06/06 00:12:03;;;;;;;35.77;24.47;;;18.20;99.90;;;;;;5076299;28;20454;-71
2021/06/06 00:14:50;;;;;;;37.77;27.30;;;18.30;99.90;;;;;;5071628;28;20474;-71
2021/06/06 00:17:35;;;;;;;35.17;25.40;;;18.30;99.90;;;;;;5077320;28;20431;-71
2021/06/06 00:20:21;;;;;;;35.57;26.17;;;18.40;99.90;;;;;;5072569;28;20811;-71
2021/06/06 00:23:07;;;;;;;40.47;28.30;;;18.40;99.90;;;;;;5075701;28;20439;-69
2021/06/06 00:25:52;;;;;;;42.37;26.60;;;18.50;99.90;;;;;;5073901;28;20450;-70
2021/06/06 00:28:37;;;;;;;35.13;27.20;;;18.50;99.90;;;;;;5065717;28;20467;-71
2021/06/06 00:31:24;;;;;;;38.90;27.10;;;18.60;99.90;;;;;;5073810;28;20500;-71
2021/06/06 00:34:09;;;;;;;41.60;27.87;;;18.60;99.90;;;;;;5075057;28;20493;-71
2021/06/06 00:36:56;;;;;;;39.70;27.43;;;18.60;99.90;;;;;;5073388;28;20799;-69
2021/06/06 00:39:41;;;;;;;40.93;29.17;;;18.60;99.90;;;;;;5072376;28;20467;-70
2021/06/06 00:42:26;;;;;;;39.53;26.20;;;18.60;99.90;;;;;;5073851;28;20434;-71
2021/06/06 00:45:19;;;;;;;43.57;28.20;;;18.60;99.90;;;;;;5070776;28;20481;-72
2021/06/06 00:48:08;;;;;;;41.87;26.13;;;18.60;99.90;;;;;;5070430;28;20467;-68
2021/06/06 00:50:56;;;;;;;38.03;27.70;;;18.60;99.90;;;;;;5073283;28;20418;-71
2021/06/06 00:53:45;;;;;;;36.40;25.50;;;18.50;99.90;;;;;;5068714;28;20488;-71
2021/06/06 00:56:30;;;;;;;42.10;26.80;;;18.50;99.90;;;;;;5064817;28;20520;-72
2021/06/06 00:59:19;;;;;;;35.47;25.57;;;18.50;99.90;;;;;;5073143;28;20486;-70
2021/06/06 01:02:04;;;;;;;43.83;31.27;;;18.50;99.90;;;;;;5071559;28;20493;-69
2021/06/06 01:04:51;;;;;;;40.20;29.70;;;18.50;99.90;;;;;;5072429;28;20463;-71
2021/06/06 01:07:36;;;;;;;45.37;30.20;;;18.50;99.90;;;;;;5064011;28;20448;-71
2021/06/06 01:10:22;;;;;;;42.73;30.00;;;18.50;99.90;;;;;;5068113;28;20730;-72
2021/06/06 01:13:12;;;;;;;43.03;28.63;;;18.50;99.90;;;;;;5072873;28;20450;-72
2021/06/06 01:16:02;;;;;;;38.23;27.70;;;18.50;99.90;;;;;;5068877;28;20919;-71
2021/06/06 01:18:49;;;;;;;39.20;28.10;;;18.60;99.90;;;;;;5065219;28;20466;-71
2021/06/06 01:21:51;;;;;;;35.80;26.53;;;18.60;99.90;;;;;;5066076;28;20478;-71
2021/06/06 01:24:39;;;;;;;38.70;27.20;;;18.50;99.90;;;;;;5070592;28;20468;-71
2021/06/06 01:27:28;;;;;;;38.97;25.47;;;18.40;99.90;;;;;;5068602;28;20476;-72
2021/06/06 01:30:20;;;;;;;39.07;26.80;;;18.40;99.90;;;;;;5073347;28;20438;-72
2021/06/06 01:33:10;;;;;;;34.00;24.50;;;18.50;99.90;;;;;;5069760;28;20502;-71
2021/06/06 01:35:58;;;;;;;40.50;27.93;;;18.50;99.90;;;;;;5073927;28;20867;-72
2021/06/06 01:38:48;;;;;;;30.93;24.40;;;18.50;99.90;;;;;;5073338;28;20462;-72
2021/06/06 01:41:37;;;;;;;32.20;25.17;;;18.50;99.90;;;;;;5070422;28;20535;-72
2021/06/06 01:44:27;;;;;;;32.77;23.13;;;18.60;99.90;;;;;;5078870;28;20436;-71
2021/06/06 01:47:17;;;;;;;30.37;22.93;;;18.60;99.90;;;;;;5072991;28;20473;-72
2021/06/06 01:50:07;;;;;;;30.40;21.47;;;18.50;99.90;;;;;;5073787;28;20501;-72
2021/06/06 01:52:53;;;;;;;28.10;20.67;;;18.40;99.90;;;;;;5066454;28;20447;-71
2021/06/06 01:55:43;;;;;;;35.90;20.40;;;18.40;99.90;;;;;;5074946;28;20458;-72
2021/06/06 01:58:31;;;;;;;32.50;21.40;;;18.40;99.90;;;;;;5077010;28;20445;-70
2021/06/06 02:01:19;;;;;;;29.97;21.97;;;18.40;99.90;;;;;;5073897;28;20545;-70
2021/06/06 02:04:07;;;;;;;30.23;19.50;;;18.30;99.90;;;;;;5075097;28;20454;-71
2021/06/06 02:06:57;;;;;;;34.33;19.80;;;18.30;99.90;;;;;;5071257;28;20609;-72
2021/06/06 02:09:47;;;;;;;32.40;20.03;;;18.30;99.90;;;;;;5068374;28;20597;-70
2021/06/06 02:12:34;;;;;;;41.50;27.07;;;18.10;99.90;;;;;;5073026;28;20802;-71
2021/06/06 02:15:25;;;;;;;37.20;26.87;;;18.00;99.90;;;;;;5071440;28;20453;-70
2021/06/06 02:18:11;;;;;;;39.97;25.90;;;18.00;99.90;;;;;;5073152;28;20488;-71
2021/06/06 02:20:57;;;;;;;39.67;27.40;;;18.00;99.90;;;;;;5069485;28;20437;-71
2021/06/06 02:23:47;;;;;;;47.63;33.63;;;18.10;99.90;;;;;;5067894;28;20461;-71
2021/06/06 02:26:37;;;;;;;56.90;37.33;;;18.10;99.90;;;;;;5067501;28;20474;-72
2021/06/06 02:29:30;;;;;;;61.20;40.20;;;18.00;99.90;;;;;;5071180;28;20489;-70
2021/06/06 02:32:23;;;;;;;72.67;44.60;;;17.90;99.90;;;;;;5072411;28;20481;-71
2021/06/06 02:35:13;;;;;;;65.93;43.30;;;17.80;99.90;;;;;;5071154;28;21091;-69
2021/06/06 02:38:02;;;;;;;70.93;46.67;;;17.80;99.90;;;;;;5067303;28;20574;-72
2021/06/06 02:40:50;;;;;;;74.13;45.90;;;17.80;99.90;;;;;;5068249;28;21535;-72
2021/06/06 02:43:40;;;;;;;72.80;45.23;;;17.70;99.90;;;;;;5066420;28;20443;-71
2021/06/06 02:46:27;;;;;;;78.37;45.47;;;17.70;99.90;;;;;;5073631;28;20438;-72
2021/06/06 02:49:17;;;;;;;74.03;46.57;;;17.80;99.90;;;;;;5073230;28;21185;-70
2021/06/06 02:52:06;;;;;;;77.83;47.43;;;17.80;99.90;;;;;;5070431;28;20840;-70
2021/06/06 02:54:55;;;;;;;87.20;49.20;;;17.80;99.90;;;;;;5075993;28;20466;-71
2021/06/06 02:57:45;;;;;;;86.47;48.80;;;17.60;99.90;;;;;;5067874;28;21019;-71
2021/06/06 03:00:33;;;;;;;74.83;47.80;;;17.70;99.90;;;;;;5067972;28;20406;-72
2021/06/06 03:03:22;;;;;;;75.47;46.17;;;17.60;99.90;;;;;;5072402;28;20454;-72
2021/06/06 03:06:14;;;;;;;74.57;46.70;;;17.60;99.90;;;;;;5072943;28;20465;-70
2021/06/06 03:08:59;;;;;;;72.63;46.57;;;17.70;99.90;;;;;;5078366;28;20422;-72
2021/06/06 03:11:47;;;;;;;75.00;45.50;;;17.80;99.90;;;;;;5078545;28;20521;-71
2021/06/06 03:14:35;;;;;;;72.10;45.33;;;17.80;99.90;;;;;;5074765;28;20533;-72
2021/06/06 03:17:26;;;;;;;76.27;45.20;;;17.90;99.90;;;;;;5076825;28;20440;-72
2021/06/06 03:20:15;;;;;;;68.43;40.27;;;17.90;99.90;;;;;;5075615;28;20425;-70
2021/06/06 03:23:05;;;;;;;62.97;39.73;;;17.70;99.90;;;;;;5078486;28;21024;-72
2021/06/06 03:25:53;;;;;;;66.27;39.70;;;17.70;99.90;;;;;;5074606;28;20481;-71
2021/06/06 03:28:41;;;;;;;67.33;42.23;;;17.70;99.90;;;;;;5078221;28;20493;-71
2021/06/06 03:31:28;;;;;;;70.63;44.90;;;17.60;99.90;;;;;;5077549;28;20443;-68
2021/06/06 03:34:14;;;;;;;72.57;44.47;;;17.70;99.90;;;;;;5071908;28;20466;-71
2021/06/06 03:36:59;;;;;;;73.63;45.70;;;17.60;99.90;;;;;;5076894;28;20489;-71
2021/06/06 03:39:46;;;;;;;68.27;44.93;;;17.70;99.90;;;;;;5076029;28;20433;-72
2021/06/06 03:42:31;;;;;;;74.03;47.80;;;17.70;99.90;;;;;;5076437;28;20424;-69
2021/06/06 03:45:17;;;;;;;83.33;48.07;;;17.70;99.90;;;;;;5073393;28;20470;-72
2021/06/06 03:48:02;;;;;;;76.00;47.63;;;17.80;99.90;;;;;;5073211;28;20517;-71
2021/06/06 03:50:51;;;;;;;81.50;49.57;;;17.80;99.90;;;;;;5074452;28;20434;-71
2021/06/06 03:53:37;;;;;;;74.20;48.00;;;17.80;99.90;;;;;;5073362;28;21079;-71
2021/06/06 03:56:24;;;;;;;83.60;50.60;;;17.80;99.90;;;;;;5076362;28;20554;-72
2021/06/06 03:59:11;;;;;;;86.13;50.07;;;17.80;99.90;;;;;;5078018;28;20486;-71
2021/06/06 04:01:56;;;;;;;79.33;48.07;;;17.80;99.90;;;;;;5075005;28;20932;-72
2021/06/06 04:04:41;;;;;;;92.17;47.53;;;17.90;99.90;;;;;;5075337;28;20429;-70
2021/06/06 04:07:26;;;;;;;77.63;48.87;;;18.00;99.90;;;;;;5077511;28;20529;-72
2021/06/06 04:10:12;;;;;;;76.17;45.90;;;18.00;99.90;;;;;;5075181;28;20477;-70
2021/06/06 04:12:59;;;;;;;82.33;46.77;;;18.00;99.90;;;;;;5073119;28;20454;-71
2021/06/06 04:15:44;;;;;;;71.67;44.40;;;18.00;99.90;;;;;;5074252;28;20520;-71
2021/06/06 04:18:31;;;;;;;81.83;46.10;;;17.90;99.90;;;;;;5073681;28;20462;-71
2021/06/06 04:21:18;;;;;;;86.33;49.40;;;17.80;99.90;;;;;;5075259;28;20489;-72
2021/06/06 04:24:05;;;;;;;77.30;47.90;;;17.60;99.90;;;;;;5075028;28;20439;-71
2021/06/06 04:26:50;;;;;;;79.43;48.60;;;17.50;99.90;;;;;;5074244;28;20453;-71
2021/06/06 04:29:36;;;;;;;80.53;49.40;;;17.50;99.90;;;;;;5075158;28;20447;-74
2021/06/06 04:32:22;;;;;;;80.70;49.80;;;17.40;99.90;;;;;;5074598;28;20454;-70
2021/06/06 04:35:08;;;;;;;73.93;46.87;;;17.40;99.90;;;;;;5074442;28;20474;-71
2021/06/06 04:37:54;;;;;;;87.80;51.00;;;17.40;99.90;;;;;;5070487;28;20474;-71
2021/06/06 04:40:39;;;;;;;86.37;54.37;;;17.50;99.90;;;;;;5077115;28;20531;-71
2021/06/06 04:43:25;;;;;;;91.27;52.00;;;17.60;99.90;;;;;;5075914;28;20443;-71
2021/06/06 04:46:14;;;;;;;80.60;48.17;;;17.60;99.90;;;;;;5071184;28;20466;-71
2021/06/06 04:48:59;;;;;;;92.70;50.97;;;17.70;99.90;;;;;;5078086;28;20409;-71
2021/06/06 04:51:44;;;;;;;79.70;48.10;;;17.70;99.90;;;;;;5075752;28;20450;-70
2021/06/06 04:54:29;;;;;;;81.90;49.93;;;17.80;99.90;;;;;;5074899;28;20508;-71
2021/06/06 04:57:14;;;;;;;80.73;49.10;;;17.80;99.90;;;;;;5073014;28;20572;-71
2021/06/06 05:00:00;;;;;;;81.03;48.80;;;17.80;99.90;;;;;;5078903;28;20439;-72
2021/06/06 05:02:46;;;;;;;79.90;48.37;;;17.80;99.90;;;;;;5074632;28;20497;-71
2021/06/06 05:05:31;;;;;;;84.00;53.10;;;17.70;99.90;;;;;;5072388;28;20529;-71
2021/06/06 05:08:18;;;;;;;83.23;52.60;;;17.60;99.90;;;;;;5072558;28;20478;-71
2021/06/06 05:11:04;;;;;;;90.40;53.37;;;17.60;99.90;;;;;;5072430;28;20436;-70
2021/06/06 05:13:49;;;;;;;79.90;51.40;;;17.60;99.90;;;;;;5073664;28;20426;-70
2021/06/06 05:16:34;;;;;;;82.27;49.97;;;17.60;99.90;;;;;;5073457;28;20443;-71
2021/06/06 05:19:21;;;;;;;86.70;49.80;;;17.50;99.90;;;;;;5076129;28;20869;-71
2021/06/06 05:22:06;;;;;;;82.83;48.63;;;17.50;99.90;;;;;;5078621;28;20431;-72
2021/06/06 05:24:51;;;;;;;74.70;48.33;;;17.50;99.90;;;;;;5074162;28;20485;-70
2021/06/06 05:27:36;;;;;;;80.10;48.70;;;17.60;99.90;;;;;;5073293;28;20440;-71
2021/06/06 05:30:25;;;;;;;84.33;49.97;;;17.50;99.90;;;;;;5073607;28;20442;-70
2021/06/06 05:33:11;;;;;;;71.43;46.90;;;17.60;99.90;;;;;;5073432;28;20423;-71
2021/06/06 05:35:58;;;;;;;71.50;46.00;;;17.70;99.90;;;;;;5070775;28;20466;-71
2021/06/06 05:38:44;;;;;;;71.10;46.67;;;17.70;99.90;;;;;;5070221;28;20454;-72
2021/06/06 05:41:29;;;;;;;74.17;48.83;;;17.60;99.90;;;;;;5073165;28;20453;-71
2021/06/06 05:44:14;;;;;;;71.23;47.00;;;17.70;99.90;;;;;;5071516;28;20439;-70
2021/06/06 05:46:59;;;;;;;72.67;46.70;;;17.70;99.90;;;;;;5070766;28;20981;-72
2021/06/06 05:49:45;;;;;;;77.47;50.80;;;17.70;99.90;;;;;;5070910;28;20420;-71
2021/06/06 05:52:32;;;;;;;83.93;50.40;;;17.60;99.90;;;;;;5073823;28;20431;-70
2021/06/06 05:55:20;;;;;;;83.30;49.40;;;17.50;99.90;;;;;;5071310;28;20466;-72
2021/06/06 05:58:06;;;;;;;77.53;47.97;;;17.50;99.90;;;;;;5071350;28;20463;-72
2021/06/06 06:00:52;;;;;;;83.40;50.30;;;17.50;99.90;;;;;;5069315;28;20437;-71
2021/06/06 06:03:37;;;;;;;79.07;49.60;;;17.50;99.90;;;;;;5072876;28;20511;-72
2021/06/06 06:06:23;;;;;;;78.77;50.37;;;17.40;99.90;;;;;;5070743;28;20485;-70
2021/06/06 06:09:09;;;;;;;82.13;52.60;;;17.40;99.90;;;;;;5070989;28;20420;-72
2021/06/06 06:11:55;;;;;;;77.37;49.63;;;17.30;99.90;;;;;;5069626;28;20509;-70
2021/06/06 06:14:40;;;;;;;78.27;51.23;;;17.30;99.90;;;;;;5068873;28;20440;-70
2021/06/06 06:17:25;;;;;;;75.43;50.53;;;17.40;99.90;;;;;;5079318;28;20394;-71
2021/06/06 06:20:14;;;;;;;83.70;50.33;;;17.40;99.90;;;;;;5072935;28;20511;-71
2021/06/06 06:22:59;;;;;;;78.10;48.20;;;17.40;99.90;;;;;;5068996;28;20450;-71
2021/06/06 06:25:45;;;;;;;73.43;49.70;;;17.40;99.90;;;;;;5070156;28;21008;-72
2021/06/06 06:28:31;;;;;;;73.87;48.00;;;17.40;99.90;;;;;;5070545;28;20471;-71
2021/06/06 06:31:17;;;;;;;80.13;49.20;;;17.30;99.90;;;;;;5070537;28;20451;-72
2021/06/06 06:34:03;;;;;;;84.73;49.77;;;17.40;99.90;;;;;;5069955;28;20979;-73
2021/06/06 06:36:48;;;;;;;80.70;50.33;;;17.30;99.90;;;;;;5073046;28;20423;-72
2021/06/06 06:39:33;;;;;;;73.67;48.03;;;17.40;99.90;;;;;;5067310;28;20446;-72
2021/06/06 06:42:20;;;;;;;83.43;52.17;;;17.40;99.90;;;;;;5069019;28;20438;-69
2021/06/06 06:45:07;;;;;;;81.60;47.57;;;17.10;99.90;;;;;;5070763;28;20463;-72
2021/06/06 06:47:57;;;;;;;82.93;49.10;;;17.10;99.90;;;;;;5066808;28;20466;-70
2021/06/06 06:50:43;;;;;;;78.23;50.50;;;17.20;99.90;;;;;;5070589;28;20587;-70
2021/06/06 06:53:28;;;;;;;82.30;49.87;;;17.10;99.90;;;;;;5078128;28;20494;-70
2021/06/06 06:56:13;;;;;;;83.43;50.80;;;17.00;99.90;;;;;;5067382;28;20482;-69
2021/06/06 06:59:00;;;;;;;81.10;50.13;;;17.10;99.90;;;;;;5070803;28;20419;-70
2021/06/06 07:01:45;;;;;;;79.07;49.10;;;17.20;99.90;;;;;;5065606;28;20474;-70
2021/06/06 07:04:31;;;;;;;76.47;49.50;;;17.20;99.90;;;;;;5064259;28;20467;-70
2021/06/06 07:07:17;;;;;;;72.57;47.00;;;17.20;99.90;;;;;;5066578;28;20469;-72
2021/06/06 07:10:03;;;;;;;74.53;47.50;;;17.20;99.90;;;;;;5066414;28;20423;-70
2021/06/06 07:12:48;;;;;;;59.40;43.10;;;17.20;99.90;;;;;;5068814;28;20454;-70
2021/06/06 07:15:36;;;;;;;67.27;44.10;;;17.30;99.90;;;;;;5064388;28;21040;-70
2021/06/06 07:18:22;;;;;;;65.07;44.10;;;17.20;99.90;;;;;;5068343;28;20445;-70
2021/06/06 07:21:09;;;;;;;75.33;46.10;;;17.20;99.90;;;;;;5071917;28;20841;-70
2021/06/06 07:23:54;;;;;;;66.80;44.53;;;17.30;99.90;;;;;;5066945;28;20453;-70
2021/06/06 07:26:43;;;;;;;65.93;43.07;;;17.30;99.90;;;;;;5068767;28;20423;-71
2021/06/06 07:29:32;;;;;;;68.07;44.20;;;17.40;99.90;;;;;;5072883;28;20809;-71
2021/06/06 07:32:18;;;;;;;71.13;43.60;;;17.40;99.90;;;;;;5067245;28;20503;-70
2021/06/06 07:35:05;;;;;;;64.80;41.73;;;17.30;99.90;;;;;;5072566;28;20450;-71
2021/06/06 07:37:51;;;;;;;64.43;42.30;;;17.30;99.90;;;;;;5065854;28;20805;-70
2021/06/06 07:40:39;;;;;;;55.47;40.00;;;17.30;99.90;;;;;;5062532;28;20462;-71
2021/06/06 07:43:24;;;;;;;65.13;39.93;;;17.30;99.90;;;;;;5067024;28;20506;-72
2021/06/06 07:46:10;;;;;;;67.47;40.10;;;17.20;99.90;;;;;;5067936;28;20504;-70
2021/06/06 07:48:57;;;;;;;63.33;38.97;;;17.20;99.90;;;;;;5063832;28;20517;-69
2021/06/06 07:51:42;;;;;;;58.57;39.90;;;17.20;99.90;;;;;;5067838;28;20958;-72
2021/06/06 07:54:27;;;;;;;62.47;39.30;;;17.20;99.90;;;;;;5073117;28;20463;-70
2021/06/06 07:57:12;;;;;;;59.83;39.33;;;17.10;99.90;;;;;;5070865;28;20450;-70
2021/06/06 07:59:57;;;;;;;58.37;38.23;;;17.10;99.90;;;;;;5069655;28;20415;-70
2021/06/06 08:02:42;;;;;;;54.80;36.33;;;17.10;99.90;;;;;;5068320;28;20436;-70
2021/06/06 08:05:29;;;;;;;50.60;35.00;;;17.20;99.90;;;;;;5069046;28;20473;-70
2021/06/06 08:08:16;;;;;;;52.10;35.77;;;17.30;99.90;;;;;;5069951;28;20465;-70
2021/06/06 08:11:04;;;;;;;49.67;32.60;;;17.30;99.90;;;;;;5076609;28;20413;-70
2021/06/06 08:13:51;;;;;;;49.77;32.30;;;17.40;99.90;;;;;;5070246;28;20461;-70
2021/06/06 08:16:36;;;;;;;43.60;33.30;;;17.50;99.90;;;;;;5071716;28;20476;-69
2021/06/06 08:19:22;;;;;;;42.67;31.50;;;17.40;99.90;;;;;;5069634;28;20996;-69
2021/06/06 08:22:08;;;;;;;44.10;31.83;;;17.40;99.90;;;;;;5073325;28;20451;-71
2021/06/06 08:24:54;;;;;;;50.10;33.40;;;17.40;99.90;;;;;;5069926;28;20877;-70
2021/06/06 08:27:40;;;;;;;44.13;31.27;;;17.40;99.90;;;;;;5072497;28;20478;-70
2021/06/06 08:30:29;;;;;;;47.20;29.47;;;17.40;99.90;;;;;;5070158;28;20525;-70
2021/06/06 08:33:14;;;;;;;41.83;28.70;;;17.40;99.90;;;;;;5065617;28;20901;-70
2021/06/06 08:36:03;;;;;;;45.83;30.47;;;17.40;99.90;;;;;;5071140;28;20477;-70
2021/06/06 08:38:50;;;;;;;40.30;29.30;;;17.50;99.90;;;;;;5072019;28;20791;-71
2021/06/06 08:41:42;;;;;;;41.43;29.27;;;17.60;99.90;;;;;;5071309;28;20450;-70
2021/06/06 08:44:30;;;;;;;41.33;28.97;;;17.60;99.90;;;;;;5069388;28;20474;-71
2021/06/06 08:47:21;;;;;;;42.43;29.67;;;17.60;99.90;;;;;;5077244;28;20450;-70
2021/06/06 08:50:10;;;;;;;45.00;30.87;;;17.60;99.90;;;;;;5071447;28;20465;-70
2021/06/06 08:53:04;;;;;;;46.90;30.47;;;17.70;99.90;;;;;;5066960;28;20442;-70
2021/06/06 08:56:06;;;;;;;46.10;32.30;;;17.70;99.90;;;;;;5064846;28;20475;-70
2021/06/06 08:58:57;;;;;;;43.17;29.40;;;17.60;99.90;;;;;;5068420;28;20412;-70
2021/06/06 09:01:49;;;;;;;44.67;30.63;;;17.60;99.90;;;;;;5068362;28;20477;-71
2021/06/06 09:04:36;;;;;;;41.23;29.30;;;17.80;99.90;;;;;;5069888;28;20441;-71
2021/06/06 09:07:33;;;;;;;38.70;27.60;;;17.90;99.90;;;;;;5066628;28;20574;-70
2021/06/06 09:10:23;;;;;;;40.87;29.00;;;18.00;99.90;;;;;;5070876;28;20487;-70
2021/06/06 09:13:14;;;;;;;40.87;29.00;;;18.00;99.90;;;;;;5070780;28;20461;-70
2021/06/06 09:16:11;;;;;;;44.87;27.97;;;18.00;99.90;;;;;;5067938;28;20576;-70
2021/06/06 09:19:03;;;;;;;46.60;29.33;;;18.20;99.90;;;;;;5070256;28;20423;-70
2021/06/06 09:21:52;;;;;;;38.57;26.87;;;18.30;99.90;;;;;;5068388;28;20520;-70
2021/06/06 09:24:42;;;;;;;39.87;28.67;;;18.40;99.90;;;;;;5067275;28;20465;-70
2021/06/06 09:27:27;;;;;;;41.90;29.10;;;18.40;99.90;;;;;;5066603;28;20472;-71
2021/06/06 09:30:17;;;;;;;44.77;28.33;;;18.50;99.90;;;;;;5069182;28;20474;-72
2021/06/06 09:33:13;;;;;;;47.17;28.90;;;18.50;99.90;;;;;;5072541;28;20941;-70
2021/06/06 09:36:01;;;;;;;50.40;28.77;;;18.70;99.90;;;;;;5068838;28;20568;-70
2021/06/06 09:38:48;;;;;;;43.60;29.20;;;18.80;99.90;;;;;;5068380;28;20443;-70
2021/06/06 09:41:37;;;;;;;40.40;26.60;;;18.90;99.90;;;;;;5067722;28;20534;-70
2021/06/06 09:44:26;;;;;;;48.23;30.57;;;19.00;99.90;;;;;;5063364;28;21001;-70
2021/06/06 09:47:16;;;;;;;46.77;32.67;;;18.90;99.90;;;;;;5069524;28;20554;-70
2021/06/06 09:50:06;;;;;;;46.40;30.30;;;18.90;99.90;;;;;;5071366;28;20499;-70
2021/06/06 09:52:51;;;;;;;34.63;25.37;;;18.90;99.90;;;;;;5067617;28;20535;-69
2021/06/06 09:55:36;;;;;;;46.10;31.70;;;18.90;99.90;;;;;;5064828;28;20467;-70
2021/06/06 09:58:31;;;;;;;46.17;30.97;;;18.80;99.90;;;;;;5070635;28;20434;-70
2021/06/06 10:01:23;;;;;;;53.07;34.13;;;18.90;99.90;;;;;;5064968;28;20512;-70
2021/06/06 10:04:21;;;;;;;58.27;34.33;;;18.90;99.90;;;;;;5068831;28;20474;-70
2021/06/06 10:07:10;;;;;;;42.30;28.17;;;19.10;99.90;;;;;;5073222;28;20795;-70
2021/06/06 10:09:57;;;;;;;40.53;27.13;;;19.10;99.90;;;;;;5065251;28;20477;-70
2021/06/06 10:12:47;;;;;;;38.17;27.60;;;19.20;99.90;;;;;;5069690;28;20470;-70
2021/06/06 10:15:41;;;;;;;38.00;26.30;;;19.40;99.90;;;;;;5067996;28;20484;-70
2021/06/06 10:18:29;;;;;;;36.90;27.83;;;19.40;99.90;;;;;;5068542;28;21091;-70
2021/06/06 10:21:19;;;;;;;40.20;28.73;;;19.30;99.90;;;;;;5071234;28;20870;-70
2021/06/06 10:24:10;;;;;;;47.67;34.37;;;19.10;99.90;;;;;;5061160;28;20569;-73
2021/06/06 10:26:57;;;;;;;38.77;27.20;;;19.00;99.90;;;;;;5065035;28;20443;-73
2021/06/06 10:29:48;;;;;;;45.43;28.40;;;19.00;99.90;;;;;;5063445;28;20450;-72
2021/06/06 10:32:37;;;;;;;37.57;25.30;;;19.20;99.90;;;;;;5067363;28;20444;-73
2021/06/06 10:35:26;;;;;;;32.97;24.40;;;19.20;99.90;;;;;;5071700;28;20528;-73
2021/06/06 10:38:13;;;;;;;36.90;25.67;;;19.20;99.90;;;;;;5069890;28;20414;-72
2021/06/06 10:41:01;;;;;;;34.63;24.33;;;19.20;99.90;;;;;;5063663;28;20837;-73
2021/06/06 10:43:51;;;;;;;30.83;24.07;;;19.30;99.90;;;;;;5066483;28;20564;-69
2021/06/06 10:46:41;;;;;;;36.50;23.40;;;19.40;99.90;;;;;;5069355;28;21293;-71
2021/06/06 10:49:29;;;;;;;33.70;22.50;;;19.40;99.90;;;;;;5070178;28;20410;-71
2021/06/06 10:52:24;;;;;;;30.50;21.73;;;19.40;99.90;;;;;;5066398;28;20518;-71
2021/06/06 10:55:27;;;;;;;29.10;20.57;;;19.60;99.90;;;;;;5068542;28;20829;-71
2021/06/06 10:58:15;;;;;;;28.77;22.10;;;19.70;99.90;;;;;;5066291;28;20486;-71
2021/06/06 11:01:05;;;;;;;27.53;20.20;;;19.80;99.90;;;;;;5069912;28;20483;-71
2021/06/06 11:03:53;;;;;;;27.80;21.53;;;19.80;99.90;;;;;;5068666;28;20459;-71
2021/06/06 11:06:42;;;;;;;27.40;21.10;;;19.90;99.90;;;;;;5065413;28;21012;-71
2021/06/06 11:09:30;;;;;;;24.73;18.83;;;19.90;99.90;;;;;;5067365;28;20517;-71
2021/06/06 11:12:29;;;;;;;24.47;19.30;;;19.90;99.90;;;;;;5073208;28;20415;-71
2021/06/06 11:15:30;;;;;;;23.83;18.80;;;20.10;99.90;;;;;;5070316;28;20470;-71
2021/06/06 11:18:17;;;;;;;25.90;19.50;;;20.30;99.90;;;;;;5066821;28;20875;-70
2021/06/06 11:21:04;;;;;;;23.93;18.03;;;20.40;99.90;;;;;;5068924;28;20454;-71
2021/06/06 11:23:57;;;;;;;20.70;16.03;;;20.40;99.90;;;;;;5063692;28;20450;-70
2021/06/06 11:26:44;;;;;;;26.63;17.80;;;20.40;99.90;;;;;;5068941;28;20455;-71
2021/06/06 11:29:48;;;;;;;20.03;16.40;;;20.60;99.90;;;;;;5067804;28;20814;-71
2021/06/06 11:32:53;;;;;;;21.67;14.77;;;20.90;99.90;;;;;;5075870;28;20442;-71
2021/06/06 11:35:50;;;;;;;16.90;13.67;;;21.20;99.90;;;;;;5070771;28;20474;-70
2021/06/06 11:38:41;;;;;;;19.33;13.87;;;21.40;99.90;;;;;;5065423;28;20443;-71
2021/06/06 11:41:33;;;;;;;16.20;11.93;;;21.40;99.90;;;;;;5072539;28;21024;-71
2021/06/06 11:44:29;;;;;;;18.43;14.43;;;21.50;99.90;;;;;;5073620;28;20393;-70
2021/06/06 11:47:23;;;;;;;14.33;11.30;;;21.50;99.90;;;;;;5073816;28;20939;-71
2021/06/06 11:50:12;;;;;;;16.60;14.07;;;21.40;99.90;;;;;;5070497;28;20987;-71
2021/06/06 11:53:03;;;;;;;17.83;13.13;;;21.20;99.90;;;;;;5075628;28;20527;-71
2021/06/06 11:55:52;;;;;;;15.33;13.60;;;21.10;99.90;;;;;;5066184;28;20887;-71
2021/06/06 11:58:42;;;;;;;16.93;13.03;;;21.00;99.90;;;;;;5072539;28;20969;-71
2021/06/06 12:01:28;;;;;;;16.30;12.37;;;20.80;99.90;;;;;;5072909;28;20469;-70
2021/06/06 12:04:15;;;;;;;18.97;14.77;;;20.90;99.90;;;;;;5069117;28;20454;-71
2021/06/06 12:07:05;;;;;;;19.00;14.10;;;20.90;99.90;;;;;;5072793;28;20414;-71
2021/06/06 12:09:52;;;;;;;17.00;14.43;;;20.80;99.90;;;;;;5068920;28;20956;-70
2021/06/06 12:12:37;;;;;;;17.67;14.20;;;20.80;99.90;;;;;;5068595;28;20532;-70
2021/06/06 12:15:28;;;;;;;18.80;14.23;;;20.70;99.90;;;;;;5073895;28;20447;-71
2021/06/06 12:18:17;;;;;;;19.80;15.50;;;20.50;99.90;;;;;;5071330;28;20489;-71
2021/06/06 12:21:09;;;;;;;19.43;13.73;;;20.50;99.90;;;;;;5072922;28;20496;-70
2021/06/06 12:24:08;;;;;;;17.30;14.20;;;20.30;99.90;;;;;;5066365;28;20569;-71
2021/06/06 12:27:00;;;;;;;15.30;11.20;;;20.30;99.90;;;;;;5067243;28;20458;-71
2021/06/06 12:29:50;;;;;;;14.20;11.90;;;20.20;99.90;;;;;;5075278;28;20835;-71
2021/06/06 12:32:38;;;;;;;13.53;11.27;;;20.20;99.90;;;;;;5072256;28;20495;-71
2021/06/06 12:35:28;;;;;;;13.93;11.47;;;20.20;99.90;;;;;;5070932;28;20512;-71
2021/06/06 12:38:16;;;;;;;13.77;12.20;;;20.20;99.90;;;;;;5076178;28;20447;-71
2021/06/06 12:41:03;;;;;;;18.20;10.90;;;20.30;99.90;;;;;;5069374;28;20521;-70
2021/06/06 12:43:52;;;;;;;13.57;11.40;;;20.40;99.90;;;;;;5071176;28;20525;-70
2021/06/06 12:46:45;;;;;;;13.17;10.73;;;20.40;99.90;;;;;;5072368;28;20449;-70
2021/06/06 12:49:37;;;;;;;16.93;10.90;;;20.60;99.90;;;;;;5071911;28;20491;-70
2021/06/06 12:52:27;;;;;;;14.77;11.33;;;20.60;99.90;;;;;;5070449;28;20855;-70
2021/06/06 12:55:18;;;;;;;20.33;10.97;;;20.60;99.90;;;;;;5071353;28;20467;-70
2021/06/06 12:58:07;;;;;;;17.50;11.60;;;20.70;99.90;;;;;;5067937;28;20542;-69
2021/06/06 13:00:55;;;;;;;13.77;11.37;;;20.70;99.90;;;;;;5071146;28;20450;-70
2021/06/06 13:03:43;;;;;;;11.47;10.27;;;20.60;99.90;;;;;;5076359;28;20461;-70
2021/06/06 13:06:41;;;;;;;12.90;10.50;;;20.60;99.90;;;;;;5071994;28;20502;-70
2021/06/06 13:09:29;;;;;;;13.00;10.70;;;20.50;99.90;;;;;;5070503;28;20531;-70
2021/06/06 13:12:24;;;;;;;12.23;10.80;;;20.60;99.90;;;;;;5074167;28;20972;-70
2021/06/06 13:15:13;;;;;;;10.90;9.77;;;20.60;99.90;;;;;;5066847;28;20813;-71
2021/06/06 13:17:59;;;;;;;14.93;10.60;;;20.60;99.90;;;;;;5066693;28;20438;-70
2021/06/06 13:20:56;;;;;;;11.27;10.07;;;20.60;99.90;;;;;;5065075;28;20450;-70
2021/06/06 13:23:44;;;;;;;11.67;10.07;;;20.60;99.90;;;;;;5063295;28;20536;-71
2021/06/06 13:26:37;;;;;;;14.63;10.53;;;20.60;99.90;;;;;;5066560;28;20439;-71
2021/06/06 13:29:34;;;;;;;12.73;9.53;;;20.60;99.90;;;;;;5077391;28;20523;-71
2021/06/06 13:32:21;;;;;;;12.33;9.67;;;20.70;99.90;;;;;;5061691;28;20446;-71
2021/06/06 13:35:08;;;;;;;10.97;9.73;;;20.50;99.90;;;;;;5055562;28;20493;-71
2021/06/06 13:37:53;;;;;;;12.30;10.07;;;20.40;99.90;;;;;;5051314;28;20942;-71
2021/06/06 13:40:42;;;;;;;12.87;9.30;;;20.40;99.90;;;;;;5069888;28;20406;-70
2021/06/06 13:43:28;;;;;;;11.63;9.73;;;20.40;99.90;;;;;;5069437;28;20823;-72
2021/06/06 13:46:17;;;;;;;13.37;10.20;;;20.40;99.90;;;;;;5067178;28;20971;-71
2021/06/06 13:49:03;;;;;;;11.17;8.77;;;20.40;99.90;;;;;;5069643;28;20522;-71
2021/06/06 13:51:48;;;;;;;21.17;8.47;;;20.30;99.90;;;;;;5069233;28;20422;-70
2021/06/06 13:54:34;;;;;;;10.63;8.80;;;20.20;99.90;;;;;;5069292;28;21043;-69
2021/06/06 13:57:19;;;;;;;9.67;7.73;;;20.20;99.90;;;;;;5066976;28;20988;-71
2021/06/06 14:00:08;;;;;;;10.23;7.67;;;20.20;99.90;;;;;;5063124;28;20424;-73
2021/06/06 14:02:58;;;;;;;14.20;10.17;;;20.20;99.90;;;;;;5064204;28;20434;-70
2021/06/06 14:05:43;;;;;;;10.10;8.87;;;20.10;99.90;;;;;;5067659;28;20470;-70
2021/06/06 14:08:30;;;;;;;15.60;8.73;;;19.90;99.90;;;;;;5066401;28;20517;-71
2021/06/06 14:11:17;;;;;;;10.67;8.80;;;19.70;99.90;;;;;;5068300;28;20447;-70
2021/06/06 14:14:04;;;;;;;10.10;8.97;;;19.60;99.90;;;;;;5065015;28;20462;-70